createdAt,value
2018-07-25T00:01:45.079Z,100488.55
2018-07-25T00:06:48.591Z,100498.82
2018-07-25T00:11:52.142Z,100499.81
2018-07-25T00:16:55.613Z,100491.85
2018-07-25T00:21:59.292Z,100500.61
2018-07-25T00:27:02.895Z,100499.38
2018-07-25T00:32:07.818Z,100494.53
2018-07-25T00:37:11.298Z,100498.70
2018-07-25T00:42:14.883Z,100503.45
2018-07-25T00:47:18.354Z,100497.96
2018-07-25T00:52:21.932Z,100501.37
2018-07-25T00:57:25.560Z,100499.67
2018-07-25T01:02:29.124Z,100506.44
2018-07-25T01:07:32.733Z,100497.02
2018-07-25T01:12:36.331Z,100499.21
2018-07-25T01:17:39.825Z,100497.88
2018-07-25T01:22:44.171Z,100501.87
2018-07-25T01:27:47.681Z,100507.92
2018-07-25T01:32:51.247Z,100513.12
2018-07-25T01:37:54.756Z,100519.19
2018-07-25T01:42:58.313Z,100520.47
2018-07-25T01:48:02.317Z,100525.65
2018-07-25T01:53:06.405Z,100525.73
2018-07-25T01:58:09.921Z,100523.04
2018-07-25T02:03:13.858Z,100523.20
2018-07-25T02:08:17.424Z,100523.91
2018-07-25T02:13:21.815Z,100526.34
2018-07-25T02:18:25.323Z,100522.59
2018-07-25T02:23:29.104Z,100521.83
2018-07-25T02:28:32.609Z,100523.62
2018-07-25T02:33:41.553Z,100520.88
2018-07-25T02:38:45.031Z,100523.91
2018-07-25T02:43:48.670Z,100528.52
2018-07-25T02:48:52.162Z,100531.34
2018-07-25T02:53:55.713Z,100539.84
2018-07-25T02:58:59.230Z,100540.12
2018-07-25T03:04:03.143Z,100545.45
2018-07-25T03:09:08.701Z,100546.74
2018-07-25T03:14:13.015Z,100554.27
2018-07-25T03:19:16.725Z,100557.40
2018-07-25T03:24:20.326Z,100559.63
2018-07-25T03:29:23.825Z,100562.13
2018-07-25T03:34:27.370Z,100566.11
2018-07-25T03:39:30.858Z,100556.95
2018-07-25T03:44:34.389Z,100548.80
2018-07-25T03:49:37.916Z,100562.00
2018-07-25T03:54:41.857Z,100560.93
2018-07-25T03:59:45.336Z,100563.40
2018-07-25T04:04:48.897Z,100566.84
2018-07-25T04:09:52.517Z,100575.73
2018-07-25T04:14:56.570Z,100580.02
2018-07-25T04:20:00.085Z,100588.10
2018-07-25T04:25:03.727Z,100592.14
2018-07-25T04:30:08.857Z,100600.82
2018-07-25T04:35:14.233Z,100598.11
2018-07-25T04:40:17.863Z,100601.05
2018-07-25T04:45:21.497Z,100602.09
2018-07-25T04:50:25.090Z,100604.03
2018-07-25T04:55:29.249Z,100608.77
2018-07-25T05:00:33.729Z,100602.20
2018-07-25T05:05:37.307Z,100605.27
2018-07-25T05:10:41.359Z,100607.45
2018-07-25T05:15:44.911Z,100610.13
2018-07-25T05:20:49.416Z,100618.42
2018-07-25T05:25:52.961Z,100624.63
2018-07-25T05:30:56.536Z,100634.60
2018-07-25T05:36:00.121Z,100632.66
2018-07-25T05:41:04.550Z,100628.30
2018-07-25T05:46:08.361Z,100631.48
2018-07-25T05:51:12.055Z,100634.39
2018-07-25T05:56:15.673Z,100642.23
2018-07-25T06:01:19.173Z,100639.08
2018-07-25T06:06:23.010Z,100640.34
2018-07-25T06:11:27.102Z,100646.24
2018-07-25T06:16:30.655Z,100656.69
2018-07-25T06:21:34.178Z,100649.75
2018-07-25T06:26:38.191Z,100650.73
2018-07-25T06:31:41.762Z,100655.36
2018-07-25T06:36:45.901Z,100665.62
2018-07-25T06:41:50.030Z,100671.59
2018-07-25T06:46:53.582Z,100668.13
2018-07-25T06:51:57.939Z,100671.30
2018-07-25T06:57:01.617Z,100666.65
2018-07-25T07:02:05.127Z,100669.23
2018-07-25T07:07:09.950Z,100681.23
2018-07-25T07:12:14.798Z,100680.98
2018-07-25T07:17:18.475Z,100681.77
2018-07-25T07:22:22.012Z,100683.66
2018-07-25T07:27:25.589Z,100688.42
2018-07-25T07:32:30.085Z,100691.56
2018-07-25T07:37:33.971Z,100691.68
2018-07-25T07:42:37.448Z,100689.13
2018-07-25T07:47:41.012Z,100680.72
2018-07-25T07:52:44.921Z,100686.14
2018-07-25T07:57:48.545Z,100687.75
2018-07-25T08:02:52.068Z,100689.86
2018-07-25T08:07:55.616Z,100686.67
2018-07-25T08:12:59.941Z,100684.37
2018-07-25T08:18:03.531Z,100688.68
2018-07-25T08:23:06.969Z,100693.26
2018-07-25T08:28:10.728Z,100691.52
2018-07-25T08:33:14.233Z,100685.27
2018-07-25T08:38:23.461Z,100690.91
2018-07-25T08:43:27.157Z,100693.73
2018-07-25T08:48:30.802Z,100689.53
2018-07-25T08:53:35.100Z,100686.69
2018-07-25T08:58:38.653Z,100688.05
2018-07-25T09:03:42.162Z,100688.02
2018-07-25T09:08:45.914Z,100684.52
2018-07-25T09:13:49.441Z,100689.55
2018-07-25T09:18:52.969Z,100690.16
2018-07-25T09:23:56.714Z,100684.49
2018-07-25T09:29:00.284Z,100692.95
2018-07-25T09:34:04.016Z,100689.25
2018-07-25T09:39:09.913Z,100686.94
2018-07-25T09:44:13.508Z,100682.77
2018-07-25T09:49:17.285Z,100681.05
2018-07-25T09:54:21.203Z,100675.73
2018-07-25T09:59:24.754Z,100680.53
2018-07-25T10:04:28.344Z,100666.39
2018-07-25T10:09:31.862Z,100670.33
2018-07-25T10:14:35.394Z,100667.63
2018-07-25T10:19:38.985Z,100670.84
2018-07-25T10:24:42.453Z,100666.20
2018-07-25T10:29:46.138Z,100659.53
2018-07-25T10:34:49.637Z,100653.69
2018-07-25T10:39:53.181Z,100657.58
2018-07-25T10:44:57.411Z,100653.76
2018-07-25T10:50:01.054Z,100650.31
2018-07-25T10:55:04.639Z,100648.63
2018-07-25T11:00:09.741Z,100649.12
2018-07-25T11:05:13.240Z,100645.47
2018-07-25T11:10:16.850Z,100637.37
2018-07-25T11:15:20.892Z,100638.11
2018-07-25T11:20:24.455Z,100640.59
2018-07-25T11:25:27.896Z,100634.61
2018-07-25T11:30:43.553Z,100630.25
2018-07-25T11:35:47.867Z,100623.87
2018-07-25T11:40:52.023Z,100619.82
2018-07-25T11:45:56.222Z,100621.17
2018-07-25T11:51:00.266Z,100616.94
2018-07-25T11:56:03.783Z,100610.81
2018-07-25T12:01:07.350Z,100615.98
2018-07-25T12:06:10.910Z,100610.94
2018-07-25T12:11:14.635Z,100599.06
2018-07-25T12:16:18.438Z,100595.63
2018-07-25T12:21:22.093Z,100598.84
2018-07-25T12:26:25.562Z,100599.81
2018-07-25T12:31:32.973Z,100599.20
2018-07-25T12:36:36.475Z,100597.66
2018-07-25T12:41:41.300Z,100590.50
2018-07-25T12:46:45.597Z,100583.14
2018-07-25T12:51:49.157Z,100583.02
2018-07-25T12:56:52.663Z,100589.85
2018-07-25T13:01:56.557Z,100586.96
2018-07-25T13:07:00.062Z,100580.91
2018-07-25T13:12:04.235Z,100588.70
2018-07-25T13:17:08.404Z,100584.78
2018-07-25T13:22:13.449Z,100577.86
2018-07-25T13:27:16.976Z,100589.00
2018-07-25T13:32:21.391Z,100586.10
2018-07-25T13:37:24.920Z,100582.83
2018-07-25T13:42:28.544Z,100581.30
2018-07-25T13:47:32.173Z,100577.40
2018-07-25T13:52:36.234Z,100580.13
2018-07-25T13:57:39.829Z,100576.75
2018-07-25T14:02:43.459Z,100573.52
2018-07-25T14:07:46.959Z,100577.40
2018-07-25T14:12:50.506Z,100569.15
2018-07-25T14:17:54.218Z,100564.41
2018-07-25T14:22:58.469Z,100564.27
2018-07-25T14:28:02.047Z,100559.86
2018-07-25T14:33:06.878Z,100561.21
2018-07-25T14:38:11.247Z,100555.63
2018-07-25T14:43:15.306Z,100563.23
2018-07-25T14:48:18.847Z,100560.86
2018-07-25T14:53:22.438Z,100561.55
2018-07-25T14:58:25.944Z,100552.47
2018-07-25T15:03:29.453Z,100551.91
2018-07-25T15:08:32.969Z,100549.06
2018-07-25T15:13:37.281Z,100543.64
2018-07-25T15:18:41.288Z,100545.67
2018-07-25T15:23:57.346Z,100541.78
2018-07-25T15:29:01.652Z,100542.31
2018-07-25T15:34:06.151Z,100534.08
2018-07-25T15:39:13.734Z,100534.39
2018-07-25T15:44:18.331Z,100541.02
2018-07-25T15:49:22.134Z,100533.55
2018-07-25T15:54:25.781Z,100534.60
2018-07-25T15:59:29.336Z,100534.86
2018-07-25T16:04:33.318Z,100532.80
2018-07-25T16:09:36.846Z,100540.30
2018-07-25T16:14:40.477Z,100535.95
2018-07-25T16:19:44.131Z,100538.28
2018-07-25T16:24:47.673Z,100543.92
2018-07-25T16:29:51.169Z,100542.91
2018-07-25T16:34:54.849Z,100541.00
2018-07-25T16:40:01.118Z,100543.14
2018-07-25T16:45:05.010Z,100544.04
2018-07-25T16:50:08.628Z,100547.53
2018-07-25T16:55:12.361Z,100553.78
2018-07-25T17:00:16.321Z,100556.89
2018-07-25T17:05:20.775Z,100561.28
2018-07-25T17:10:24.333Z,100564.30
2018-07-25T17:15:28.219Z,100572.61
2018-07-25T17:20:31.746Z,100570.09
2018-07-25T17:25:35.306Z,100572.11
2018-07-25T17:30:39.321Z,100607.45
2018-07-25T17:35:42.889Z,100604.00
2018-07-25T17:40:46.458Z,100611.86
2018-07-25T17:45:51.068Z,100619.13
2018-07-25T17:50:54.600Z,100628.87
2018-07-25T17:55:58.200Z,100629.44
2018-07-25T18:01:01.746Z,100627.71
2018-07-25T18:06:07.502Z,100631.28
2018-07-25T18:11:11.470Z,100653.68
2018-07-25T18:16:15.054Z,100659.89
2018-07-25T18:21:18.576Z,100659.48
2018-07-25T18:26:23.266Z,100655.72
2018-07-25T18:31:26.791Z,100656.88
2018-07-25T18:36:31.386Z,100660.48
2018-07-25T18:41:34.923Z,100667.22
2018-07-25T18:46:43.972Z,100665.77
2018-07-25T18:51:47.472Z,100669.63
2018-07-25T18:56:51.008Z,100681.03
2018-07-25T19:01:54.668Z,100692.78
2018-07-25T19:06:58.291Z,100694.95
2018-07-25T19:12:01.774Z,100689.71
2018-07-25T19:17:05.342Z,100694.72
2018-07-25T19:22:08.914Z,100697.04
2018-07-25T19:27:12.564Z,100705.08
2018-07-25T19:32:16.612Z,100711.67
2018-07-25T19:37:21.982Z,100708.98
2018-07-25T19:42:25.479Z,100715.19
2018-07-25T19:47:29.005Z,100720.76
2018-07-25T19:52:32.595Z,100721.72
2018-07-25T19:57:36.142Z,100724.62
2018-07-25T20:02:40.700Z,100719.74
2018-07-25T20:07:44.392Z,100719.52
2018-07-25T20:12:48.079Z,100714.17
2018-07-25T20:17:51.661Z,100707.57
2018-07-25T20:23:01.792Z,100704.98
2018-07-25T20:28:05.560Z,100704.38
2018-07-25T20:33:09.091Z,100712.00
2018-07-25T20:38:13.607Z,100709.52
2018-07-25T20:43:17.204Z,100711.92
2018-07-25T20:48:20.944Z,100719.34
2018-07-25T20:53:24.448Z,100715.18
2018-07-25T20:58:28.051Z,100720.14
2018-07-25T21:03:32.520Z,100720.59
2018-07-25T21:08:37.032Z,100733.08
2018-07-25T21:13:40.505Z,100724.91
2018-07-25T21:18:44.047Z,100726.13
2018-07-25T21:23:47.587Z,100721.08
2018-07-25T21:28:51.640Z,100718.13
2018-07-25T21:33:55.710Z,100724.14
2018-07-25T21:38:59.462Z,100720.26
2018-07-25T21:44:02.975Z,100720.71
2018-07-25T21:49:07.020Z,100721.16
2018-07-25T21:54:10.560Z,100722.22
2018-07-25T21:59:14.119Z,100722.05
2018-07-25T22:04:17.774Z,100727.64
2018-07-25T22:09:21.372Z,100726.50
2018-07-25T22:14:25.917Z,100726.73
2018-07-25T22:19:30.140Z,100729.57
2018-07-25T22:24:33.612Z,100726.05
2018-07-25T22:29:37.174Z,100721.02
2018-07-25T22:34:40.655Z,100714.61
2018-07-25T22:39:45.080Z,100709.45
2018-07-25T22:44:48.907Z,100713.45
2018-07-25T22:49:52.475Z,100724.32
2018-07-25T22:54:55.932Z,100718.70
2018-07-25T22:59:59.455Z,100727.92
2018-07-25T23:05:03.062Z,100725.42
2018-07-25T23:10:07.604Z,100723.24
2018-07-25T23:15:11.180Z,100729.48
2018-07-25T23:20:16.137Z,100728.23
2018-07-25T23:25:19.613Z,100733.23
2018-07-25T23:30:32.549Z,100729.94
2018-07-25T23:35:36.083Z,100732.42
2018-07-25T23:40:39.565Z,100734.30
2018-07-25T23:45:43.147Z,100717.64
2018-07-25T23:50:46.773Z,100715.88
2018-07-25T23:55:50.310Z,100722.84
